CheckWX is a tool to help pilots better visualize weather data.  It is not intended as a substitute for an official pre-flight weather briefing.

14:42:58 UTC

ESGJ METAR
Jönköping Airport
Jönköping, Sweden
Current

23 mins ago

ESGJ 201420Z 07005KT 020V100 9999 FEW038 20/15 Q1008
Observed
May-20 @ 14:20 UTC
Wind
  • 070° at 5 KTS
Visibility
10,000+ meters
Flight Rules
VFR
Cloud Levels
  • Few at 3,800' AGL
Temperature
20°C / 68°F
Dewpoint
15°C / 59°F
Humidity
73%
Altimeter
29.76" Hg
Pressure
1007.92 hPa
Previous

53 mins ago

ESGJ 201350Z 07004KT 030V100 9999 FEW021 SCT038TCU 20/16 Q1008
Observed
May-20 @ 13:50 UTC
Wind
  • 070° at 4 KTS
Visibility
10,000+ meters
Flight Rules
VFR
Cloud Levels
  • Few at 2,100' AGL
  • Scattered at 3,800' AGL
Temperature
20°C / 68°F
Dewpoint
16°C / 61°F
Humidity
78%
Altimeter
29.76" Hg
Pressure
1007.92 hPa
Previous

1 hour ago

ESGJ 201320Z 11004KT 080V160 9999 FEW021 SCT030TCU 19/15 Q1009
Observed
May-20 @ 13:20 UTC
Wind
  • 110° at 4 KTS
Visibility
10,000+ meters
Flight Rules
VFR
Cloud Levels
  • Few at 2,100' AGL
  • Scattered at 3,000' AGL
Temperature
19°C / 66°F
Dewpoint
15°C / 59°F
Humidity
78%
Altimeter
29.79" Hg
Pressure
1008.92 hPa